Aviation Digital Data Service (ADDS)

Output produced by METARs form (0814 UTC 24 May 2018)
found at http://www.aviationweather.gov/adds/metars/
 
FTTC 240800Z 18014KT 8000 NSC 34/// Q1012
FTTY 240800Z 14010KT CAVOK 38/06 Q////
FTTD 240800Z 04016KT 9999 -RA SCT030 FEW050CB 27/22 Q1013
FTTJ 240800Z 20011KT CAVOK 34/21 Q1008 NOSIG
TAF FTTJ 240505Z 2406/2512 24012KT CAVOK 
     TEMPO 2415/2419 VRB15G25KT 3000 TSRA
       
FTTA 240800Z 04016KT 9999 -RA SCT030 FEW050CB 27/22 Q1013